Time;durP1;ratioP1;P1;durP2;ratioP2;P2;SDS_P1;SDS_P2;PMS_P1;PMS_P2;Temp;Humidity;BMP_temperature;BMP_pressure;BME280_temperature;BME280_humidity;BME280_pressure;Samples;Min_cycle;Max_cycle;Signal;HPM_P1;HPM_P2
2023/01/19 00:00:17;;;;;;;12.95;10.35;;;;;;;;;;5074694;28;20759;-53
2023/01/19 00:02:46;;;;;;;14.40;9.68;;;;;;;;;;5074724;28;20198;-53
2023/01/19 00:05:13;;;;;;;15.35;9.80;;;;;;;;;;5074680;28;20198;-53
2023/01/19 00:07:40;;;;;;;12.10;9.75;;;;;;;;;;5074599;28;20189;-50
2023/01/19 00:10:08;;;;;;;15.20;10.25;;;;;;;;;;5074472;28;20644;-55
2023/01/19 00:12:35;;;;;;;15.80;10.07;;;;;;;;;;5074674;28;20196;-54
2023/01/19 00:15:03;;;;;;;16.08;9.93;;;;;;;;;;5074466;28;20288;-51
2023/01/19 00:17:30;;;;;;;9.95;8.95;;;;;;;;;;5074507;28;20189;-50
2023/01/19 00:19:57;;;;;;;11.80;9.73;;;;;;;;;;5074396;28;20194;-52
2023/01/19 00:22:24;;;;;;;14.82;9.98;;;;;;;;;;5074300;28;20191;-50
2023/01/19 00:24:51;;;;;;;15.65;9.90;;;;;;;;;;5074187;28;20281;-49
2023/01/19 00:27:18;;;;;;;12.20;10.18;;;;;;;;;;5074302;28;20190;-53
2023/01/19 00:29:45;;;;;;;14.88;10.02;;;;;;;;;;5074100;28;20685;-49
2023/01/19 00:32:13;;;;;;;12.27;9.18;;;;;;;;;;5074131;28;20277;-50
2023/01/19 00:34:41;;;;;;;11.82;8.90;;;;;;;;;;5073969;28;20222;-51
2023/01/19 00:37:09;;;;;;;11.70;9.70;;;;;;;;;;5073791;28;20217;-51
2023/01/19 00:39:36;;;;;;;15.20;9.70;;;;;;;;;;5074115;28;20190;-51
2023/01/19 00:44:48;;;;;;;12.65;9.38;;;;;;;;;;5073708;28;20240;-50
2023/01/19 00:47:16;;;;;;;14.10;10.00;;;;;;;;;;5073807;28;20201;-50
2023/01/19 00:49:43;;;;;;;10.90;8.43;;;;;;;;;;5073537;28;20199;-50
2023/01/19 00:52:10;;;;;;;10.88;8.77;;;;;;;;;;5072821;28;20645;-50
2023/01/19 00:54:37;;;;;;;15.68;9.60;;;;;;;;;;5073711;28;20194;-49
2023/01/19 00:57:04;;;;;;;15.77;9.75;;;;;;;;;;5073592;28;20225;-51
2023/01/19 00:59:31;;;;;;;13.80;9.50;;;;;;;;;;5073620;28;20186;-53
2023/01/19 01:01:58;;;;;;;14.23;10.73;;;;;;;;;;5073538;28;20189;-50
2023/01/19 01:04:26;;;;;;;12.68;9.68;;;;;;;;;;5073327;28;20190;-53
2023/01/19 01:06:53;;;;;;;11.90;9.13;;;;;;;;;;5073637;28;20194;-53
2023/01/19 01:09:20;;;;;;;10.52;8.45;;;;;;;;;;5073490;28;20195;-54
2023/01/19 01:11:47;;;;;;;14.45;9.05;;;;;;;;;;5073431;28;20193;-51
2023/01/19 01:14:14;;;;;;;16.20;10.15;;;;;;;;;;5073298;28;20189;-51
2023/01/19 01:16:41;;;;;;;14.77;9.70;;;;;;;;;;5073090;28;20214;-53
2023/01/19 01:19:08;;;;;;;12.43;8.50;;;;;;;;;;5073492;28;20187;-54
2023/01/19 01:21:36;;;;;;;11.20;8.75;;;;;;;;;;5073324;28;20192;-52
2023/01/19 01:24:03;;;;;;;12.20;9.48;;;;;;;;;;5073241;28;20267;-51
2023/01/19 01:26:30;;;;;;;14.38;9.73;;;;;;;;;;5073208;28;20190;-54
2023/01/19 01:28:57;;;;;;;10.80;8.32;;;;;;;;;;5073137;28;20193;-49
2023/01/19 01:31:24;;;;;;;11.57;9.55;;;;;;;;;;5072952;28;20284;-51
2023/01/19 01:33:51;;;;;;;9.45;8.20;;;;;;;;;;5073163;28;20190;-51
2023/01/19 01:36:19;;;;;;;11.10;8.38;;;;;;;;;;5073039;28;20213;-53
2023/01/19 01:38:47;;;;;;;13.77;9.75;;;;;;;;;;5073061;28;20193;-50
2023/01/19 01:41:14;;;;;;;10.23;8.10;;;;;;;;;;5072958;28;20191;-51
2023/01/19 01:43:46;;;;;;;10.70;8.57;;;;;;;;;;5072698;28;20224;-49
2023/01/19 01:46:14;;;;;;;10.80;8.60;;;;;;;;;;5072892;28;20644;-50
2023/01/19 01:48:43;;;;;;;12.20;8.68;;;;;;;;;;5072981;28;20201;-49
2023/01/19 01:51:26;;;;;;;14.27;9.20;;;;;;;;;;5072944;28;20196;-50
2023/01/19 01:53:56;;;;;;;10.20;8.18;;;;;;;;;;5072806;28;20243;-50
2023/01/19 01:56:25;;;;;;;12.20;9.05;;;;;;;;;;5072760;28;20217;-51
2023/01/19 01:58:52;;;;;;;12.32;7.70;;;;;;;;;;5072963;28;20194;-56
2023/01/19 02:04:03;;;;;;;11.48;8.43;;;;;;;;;;5076963;28;20188;-52
2023/01/19 02:06:30;;;;;;;11.70;8.45;;;;;;;;;;5076787;28;20225;-50
2023/01/19 02:14:32;;;;;;;12.68;8.90;;;;;;;;;;5076825;28;20560;-51
2023/01/19 02:17:00;;;;;;;13.27;9.80;;;;;;;;;;5076690;28;20194;-53
2023/01/19 02:19:31;;;;;;;13.70;8.15;;;;;;;;;;5076539;28;20193;-52
2023/01/19 02:22:02;;;;;;;12.85;9.15;;;;;;;;;;5076511;28;20652;-52
2023/01/19 02:24:30;;;;;;;12.77;7.80;;;;;;;;;;5076662;28;20193;-49
2023/01/19 02:26:58;;;;;;;12.18;8.50;;;;;;;;;;5076428;28;20216;-51
2023/01/19 02:29:26;;;;;;;10.18;8.27;;;;;;;;;;5076373;28;20189;-50
2023/01/19 02:31:55;;;;;;;11.10;7.88;;;;;;;;;;5076318;28;20216;-53
2023/01/19 02:34:22;;;;;;;13.15;7.82;;;;;;;;;;5076432;28;20201;-50
2023/01/19 02:36:51;;;;;;;10.40;7.45;;;;;;;;;;5076406;28;20189;-49
2023/01/19 02:39:19;;;;;;;9.80;8.07;;;;;;;;;;5076249;28;20190;-54
2023/01/19 02:41:49;;;;;;;12.63;8.20;;;;;;;;;;5076311;28;20186;-55
2023/01/19 02:44:17;;;;;;;9.90;7.30;;;;;;;;;;5075873;28;20222;-51
2023/01/19 02:46:44;;;;;;;9.95;7.40;;;;;;;;;;5076150;28;20308;-52
2023/01/19 02:49:11;;;;;;;9.15;8.00;;;;;;;;;;5076155;28;20197;-51
2023/01/19 02:51:37;;;;;;;14.25;8.30;;;;;;;;;;5076039;28;20216;-50
2023/01/19 02:54:12;;;;;;;10.63;8.93;;;;;;;;;;5076030;28;20564;-50
2023/01/19 02:56:48;;;;;;;13.20;7.80;;;;;;;;;;5075830;28;20205;-50
2023/01/19 02:59:22;;;;;;;9.60;7.53;;;;;;;;;;5076021;28;20193;-55
2023/01/19 03:01:57;;;;;;;8.95;7.88;;;;;;;;;;5075983;28;20194;-51
2023/01/19 03:04:26;;;;;;;13.18;8.25;;;;;;;;;;5075860;28;20193;-50
2023/01/19 03:06:55;;;;;;;11.23;8.00;;;;;;;;;;5075633;28;20217;-52
2023/01/19 03:09:28;;;;;;;14.02;8.57;;;;;;;;;;5075647;28;20186;-51
2023/01/19 03:12:00;;;;;;;11.50;8.02;;;;;;;;;;5075792;28;20189;-52
2023/01/19 03:14:30;;;;;;;13.05;8.90;;;;;;;;;;5074656;28;20204;-51
2023/01/19 03:16:57;;;;;;;13.10;8.27;;;;;;;;;;5075615;28;20196;-50
2023/01/19 03:19:27;;;;;;;12.07;7.93;;;;;;;;;;5075606;28;20193;-53
2023/01/19 03:21:56;;;;;;;11.70;8.32;;;;;;;;;;5075451;28;20631;-51
2023/01/19 03:24:24;;;;;;;9.48;7.90;;;;;;;;;;5075523;28;20196;-50
2023/01/19 03:26:56;;;;;;;12.60;8.88;;;;;;;;;;5075410;28;20218;-53
2023/01/19 03:29:25;;;;;;;12.48;8.38;;;;;;;;;;5075422;28;20193;-50
2023/01/19 03:31:54;;;;;;;14.82;10.15;;;;;;;;;;5075377;28;20247;-49
2023/01/19 03:34:22;;;;;;;11.90;8.95;;;;;;;;;;5075240;28;20527;-53
2023/01/19 03:36:51;;;;;;;12.60;8.48;;;;;;;;;;5075373;28;20189;-49
2023/01/19 03:39:21;;;;;;;9.85;7.88;;;;;;;;;;5075247;28;20229;-51
2023/01/19 03:41:48;;;;;;;14.55;8.75;;;;;;;;;;5075590;28;20293;-51
2023/01/19 03:44:16;;;;;;;10.88;9.27;;;;;;;;;;5074831;28;20230;-51
2023/01/19 03:46:43;;;;;;;11.85;8.40;;;;;;;;;;5074893;28;20221;-50
2023/01/19 03:49:12;;;;;;;13.57;9.32;;;;;;;;;;5074918;28;20280;-49
2023/01/19 03:51:39;;;;;;;12.82;9.18;;;;;;;;;;5074789;28;20192;-49
2023/01/19 03:54:06;;;;;;;13.40;9.07;;;;;;;;;;5074956;28;20193;-54
2023/01/19 03:56:34;;;;;;;14.32;8.98;;;;;;;;;;5074874;28;20197;-51
2023/01/19 03:59:00;;;;;;;13.80;8.40;;;;;;;;;;5074757;28;20196;-49
2023/01/19 04:01:27;;;;;;;10.35;8.30;;;;;;;;;;5074663;28;20216;-49
2023/01/19 04:03:54;;;;;;;11.00;8.65;;;;;;;;;;5074711;28;20186;-50
2023/01/19 04:06:23;;;;;;;12.15;9.30;;;;;;;;;;5074698;28;20218;-51
2023/01/19 04:08:50;;;;;;;12.10;8.95;;;;;;;;;;5074582;28;20239;-51
2023/01/19 04:11:17;;;;;;;12.18;9.70;;;;;;;;;;5074530;28;20190;-51
2023/01/19 04:13:44;;;;;;;13.20;9.63;;;;;;;;;;5074379;28;20322;-53
2023/01/19 04:16:12;;;;;;;13.90;9.05;;;;;;;;;;5074595;28;20602;-50
2023/01/19 04:18:39;;;;;;;11.52;9.20;;;;;;;;;;5074363;28;20224;-50
2023/01/19 04:21:07;;;;;;;16.30;9.68;;;;;;;;;;5074436;28;20186;-49
2023/01/19 04:23:35;;;;;;;14.50;9.90;;;;;;;;;;5074345;28;20614;-50
2023/01/19 04:26:03;;;;;;;10.05;7.65;;;;;;;;;;5073992;28;20222;-49
2023/01/19 04:28:31;;;;;;;12.25;9.15;;;;;;;;;;5074027;28;20249;-50
2023/01/19 04:30:58;;;;;;;12.00;9.15;;;;;;;;;;5074262;28;20220;-51
2023/01/19 04:33:25;;;;;;;11.07;8.63;;;;;;;;;;5074158;28;20201;-53
2023/01/19 04:35:52;;;;;;;12.40;8.77;;;;;;;;;;5074102;28;20196;-52
2023/01/19 04:38:19;;;;;;;14.90;8.98;;;;;;;;;;5073876;28;20201;-51
2023/01/19 04:40:49;;;;;;;12.63;9.43;;;;;;;;;;5073919;28;20189;-49
2023/01/19 04:43:16;;;;;;;10.82;9.35;;;;;;;;;;5073726;28;20247;-52
2023/01/19 04:45:43;;;;;;;12.05;8.60;;;;;;;;;;5073954;28;20189;-50
2023/01/19 04:48:10;;;;;;;16.55;9.75;;;;;;;;;;5073503;28;20703;-52
2023/01/19 04:50:38;;;;;;;11.98;8.73;;;;;;;;;;5073728;28;20193;-49
2023/01/19 04:53:05;;;;;;;12.52;8.57;;;;;;;;;;5073642;28;20189;-49
2023/01/19 04:55:31;;;;;;;11.18;8.70;;;;;;;;;;5073529;28;20186;-50
2023/01/19 04:58:00;;;;;;;14.35;8.95;;;;;;;;;;5073752;28;20194;-50
2023/01/19 05:00:27;;;;;;;16.15;8.95;;;;;;;;;;5073613;28;20303;-51
2023/01/19 05:02:54;;;;;;;11.52;8.75;;;;;;;;;;5073593;28;20194;-52
2023/01/19 05:05:20;;;;;;;13.93;9.75;;;;;;;;;;5073369;28;20201;-50
2023/01/19 05:07:47;;;;;;;15.18;10.05;;;;;;;;;;5073311;28;20240;-55
2023/01/19 05:10:14;;;;;;;18.48;8.93;;;;;;;;;;5073362;28;20224;-53
2023/01/19 05:12:41;;;;;;;11.77;9.00;;;;;;;;;;5073476;28;20280;-49
2023/01/19 05:15:10;;;;;;;11.57;9.48;;;;;;;;;;5073373;28;20290;-51
2023/01/19 05:17:37;;;;;;;14.73;9.38;;;;;;;;;;5073284;28;20212;-52
2023/01/19 05:20:05;;;;;;;13.65;9.80;;;;;;;;;;5073259;28;20200;-51
2023/01/19 05:22:32;;;;;;;14.90;9.50;;;;;;;;;;5073109;28;20196;-51
2023/01/19 05:25:00;;;;;;;11.55;9.45;;;;;;;;;;5073250;28;20596;-50
2023/01/19 05:27:27;;;;;;;15.75;10.35;;;;;;;;;;5073159;28;20307;-52
2023/01/19 05:29:54;;;;;;;16.30;9.40;;;;;;;;;;5073185;28;20205;-52
2023/01/19 05:32:22;;;;;;;14.75;9.35;;;;;;;;;;5073070;28;20343;-51
2023/01/19 05:34:49;;;;;;;10.48;8.50;;;;;;;;;;5072812;28;20204;-49
2023/01/19 05:37:16;;;;;;;15.07;9.48;;;;;;;;;;5072150;28;20277;-53
2023/01/19 05:39:43;;;;;;;15.27;10.85;;;;;;;;;;5073019;28;20215;-51
2023/01/19 05:42:10;;;;;;;13.25;9.75;;;;;;;;;;5072810;28;20198;-51
2023/01/19 05:44:37;;;;;;;14.90;10.07;;;;;;;;;;5072493;28;20217;-51
2023/01/19 05:47:04;;;;;;;14.02;9.52;;;;;;;;;;5072749;28;20300;-55
2023/01/19 05:49:32;;;;;;;13.63;9.60;;;;;;;;;;5072729;28;20190;-49
2023/01/19 05:51:59;;;;;;;10.70;9.35;;;;;;;;;;5072641;28;20546;-51
2023/01/19 05:54:26;;;;;;;18.77;10.20;;;;;;;;;;5072825;28;20385;-50
2023/01/19 05:56:53;;;;;;;13.80;8.77;;;;;;;;;;5072918;28;20200;-51
2023/01/19 05:59:22;;;;;;;14.18;9.73;;;;;;;;;;5072659;28;20193;-49
2023/01/19 06:01:49;;;;;;;15.80;10.60;;;;;;;;;;5072645;28;20242;-51
2023/01/19 06:04:16;;;;;;;13.45;8.93;;;;;;;;;;5072392;28;20669;-54
2023/01/19 06:06:45;;;;;;;14.20;10.20;;;;;;;;;;5072685;28;20285;-52
2023/01/19 06:09:12;;;;;;;12.07;8.48;;;;;;;;;;5072558;28;20189;-52
2023/01/19 06:11:39;;;;;;;14.35;10.80;;;;;;;;;;5072593;28;20189;-50
2023/01/19 06:14:05;;;;;;;19.50;11.07;;;;;;;;;;5072500;28;20243;-51
2023/01/19 06:16:33;;;;;;;16.45;10.05;;;;;;;;;;5072558;28;20189;-53
2023/01/19 06:18:59;;;;;;;13.70;10.68;;;;;;;;;;5072424;28;20193;-51
2023/01/19 06:21:26;;;;;;;14.35;9.70;;;;;;;;;;5072612;28;20280;-54
2023/01/19 06:23:55;;;;;;;14.05;9.65;;;;;;;;;;5072459;28;20629;-51
2023/01/19 06:26:22;;;;;;;16.25;10.25;;;;;;;;;;5072300;28;20190;-53
2023/01/19 06:28:51;;;;;;;16.80;10.40;;;;;;;;;;5072093;28;20217;-51
2023/01/19 06:31:18;;;;;;;12.70;9.05;;;;;;;;;;5072100;28;20194;-50
2023/01/19 06:33:45;;;;;;;11.57;9.15;;;;;;;;;;5072504;28;20190;-50
2023/01/19 06:36:11;;;;;;;13.13;9.40;;;;;;;;;;5072316;28;20220;-53
2023/01/19 06:38:39;;;;;;;15.15;10.35;;;;;;;;;;5072117;28;20198;-50
2023/01/19 06:41:07;;;;;;;14.23;10.10;;;;;;;;;;5072054;28;20243;-52
2023/01/19 06:43:34;;;;;;;11.30;9.60;;;;;;;;;;5071819;28;20196;-52
2023/01/19 06:46:02;;;;;;;12.18;9.63;;;;;;;;;;5071931;28;20200;-56
2023/01/19 06:48:29;;;;;;;10.65;8.38;;;;;;;;;;5073371;28;20252;-51
2023/01/19 06:50:56;;;;;;;11.70;8.98;;;;;;;;;;5075930;28;20197;-52
2023/01/19 06:53:23;;;;;;;20.20;10.93;;;;;;;;;;5075906;28;20197;-50
2023/01/19 06:55:50;;;;;;;12.60;9.90;;;;;;;;;;5075725;28;20352;-49
2023/01/19 06:58:18;;;;;;;11.32;8.70;;;;;;;;;;5075566;28;20276;-53
2023/01/19 07:00:45;;;;;;;13.80;10.30;;;;;;;;;;5075518;28;20280;-49
2023/01/19 07:03:18;;;;;;;15.50;9.68;;;;;;;;;;5075804;28;20597;-50
2023/01/19 07:05:45;;;;;;;11.32;10.13;;;;;;;;;;5075698;28;20292;-50
2023/01/19 07:08:14;;;;;;;15.02;9.00;;;;;;;;;;5075470;28;20304;-49
2023/01/19 07:10:41;;;;;;;11.02;9.50;;;;;;;;;;5075506;28;20194;-49
2023/01/19 07:13:08;;;;;;;11.68;9.13;;;;;;;;;;5075397;28;20296;-54
2023/01/19 07:15:36;;;;;;;14.40;10.32;;;;;;;;;;5075659;28;20617;-54
2023/01/19 07:18:06;;;;;;;12.15;9.63;;;;;;;;;;5075591;28;20688;-51
2023/01/19 07:20:33;;;;;;;15.05;10.93;;;;;;;;;;5075419;28;20194;-49
2023/01/19 07:23:00;;;;;;;13.02;8.55;;;;;;;;;;5075280;28;20194;-51
2023/01/19 07:25:27;;;;;;;15.50;10.23;;;;;;;;;;5075324;28;20221;-51
2023/01/19 07:27:56;;;;;;;12.23;8.73;;;;;;;;;;5075421;28;20267;-50
2023/01/19 07:30:23;;;;;;;14.00;10.60;;;;;;;;;;5075352;28;20282;-51
2023/01/19 07:32:52;;;;;;;11.30;9.40;;;;;;;;;;5075260;28;20190;-54
2023/01/19 07:35:20;;;;;;;13.00;9.98;;;;;;;;;;5075317;28;20216;-56
2023/01/19 07:37:47;;;;;;;12.10;9.65;;;;;;;;;;5075050;28;20236;-56
2023/01/19 07:40:14;;;;;;;13.02;9.88;;;;;;;;;;5074954;28;20194;-57
2023/01/19 07:42:47;;;;;;;11.38;9.63;;;;;;;;;;5075075;28;20243;-56
2023/01/19 07:45:14;;;;;;;14.30;9.80;;;;;;;;;;5074739;28;20221;-56
2023/01/19 07:47:43;;;;;;;10.98;9.27;;;;;;;;;;5074814;28;20228;-54
2023/01/19 07:50:12;;;;;;;9.38;8.38;;;;;;;;;;5074836;28;20384;-49
2023/01/19 07:52:39;;;;;;;11.60;8.70;;;;;;;;;;5074569;28;20204;-51
2023/01/19 07:55:06;;;;;;;13.05;8.88;;;;;;;;;;5074863;28;20190;-55
2023/01/19 07:57:33;;;;;;;13.10;8.70;;;;;;;;;;5074773;28;20194;-51
2023/01/19 08:00:00;;;;;;;9.77;8.38;;;;;;;;;;5074126;28;20185;-53
2023/01/19 08:02:29;;;;;;;11.63;8.80;;;;;;;;;;5074633;28;20192;-52
2023/01/19 08:04:56;;;;;;;13.60;8.35;;;;;;;;;;5074542;28;20192;-51
2023/01/19 08:07:24;;;;;;;12.25;8.70;;;;;;;;;;5074294;28;20284;-52
2023/01/19 08:09:51;;;;;;;13.55;8.98;;;;;;;;;;5074592;28;20556;-54
2023/01/19 08:12:18;;;;;;;10.38;8.70;;;;;;;;;;5074264;28;20705;-51
2023/01/19 08:14:45;;;;;;;16.33;9.18;;;;;;;;;;5074413;28;20563;-55
2023/01/19 08:17:12;;;;;;;12.18;8.98;;;;;;;;;;5074275;28;20278;-52
2023/01/19 08:19:40;;;;;;;11.50;9.27;;;;;;;;;;5073992;28;20285;-54
2023/01/19 08:22:07;;;;;;;12.32;9.00;;;;;;;;;;5073992;28;20196;-68
2023/01/19 08:24:35;;;;;;;11.43;8.55;;;;;;;;;;5074284;28;20196;-62
2023/01/19 08:27:03;;;;;;;10.93;8.85;;;;;;;;;;5073958;28;20194;-58
2023/01/19 08:29:30;;;;;;;12.43;8.57;;;;;;;;;;5073913;28;20221;-65
2023/01/19 08:31:58;;;;;;;10.85;8.70;;;;;;;;;;5073860;28;20190;-66
2023/01/19 08:34:26;;;;;;;14.13;7.80;;;;;;;;;;5073627;28;20285;-66
2023/01/19 08:36:52;;;;;;;9.15;7.45;;;;;;;;;;5074085;28;20197;-66
2023/01/19 08:39:22;;;;;;;9.15;7.32;;;;;;;;;;5073616;28;20226;-62
2023/01/19 08:41:51;;;;;;;8.52;7.63;;;;;;;;;;5073822;28;20221;-52
2023/01/19 08:44:18;;;;;;;11.43;7.18;;;;;;;;;;5072998;28;20221;-63
2023/01/19 08:46:45;;;;;;;8.68;7.32;;;;;;;;;;5073323;28;20281;-62
2023/01/19 08:49:12;;;;;;;14.45;8.45;;;;;;;;;;5073529;28;20228;-62
2023/01/19 08:51:39;;;;;;;9.70;7.78;;;;;;;;;;5073394;28;20642;-61
2023/01/19 08:54:06;;;;;;;8.60;7.43;;;;;;;;;;5073654;28;20273;-59
2023/01/19 08:56:33;;;;;;;12.82;8.38;;;;;;;;;;5072292;28;20694;-60
2023/01/19 08:59:01;;;;;;;9.05;7.43;;;;;;;;;;5072661;28;20660;-65
2023/01/19 09:01:28;;;;;;;10.88;7.80;;;;;;;;;;5073483;28;20189;-59
2023/01/19 09:03:55;;;;;;;12.13;7.90;;;;;;;;;;5073577;28;20232;-59
2023/01/19 09:06:24;;;;;;;9.75;8.55;;;;;;;;;;5073390;28;20193;-59
2023/01/19 09:08:51;;;;;;;11.52;7.72;;;;;;;;;;5073278;28;20221;-59
2023/01/19 09:11:18;;;;;;;12.70;7.57;;;;;;;;;;5072748;28;20189;-59
2023/01/19 09:13:45;;;;;;;11.80;8.32;;;;;;;;;;5072924;28;20190;-59
2023/01/19 09:16:14;;;;;;;8.93;7.70;;;;;;;;;;5073066;28;20278;-59
2023/01/19 09:18:41;;;;;;;11.18;8.55;;;;;;;;;;5072942;28;20454;-59
2023/01/19 09:21:09;;;;;;;10.27;8.30;;;;;;;;;;5073042;28;20276;-59
2023/01/19 09:23:36;;;;;;;11.32;8.05;;;;;;;;;;5073038;28;20193;-59
2023/01/19 09:26:05;;;;;;;10.52;8.07;;;;;;;;;;5074771;28;20239;-59
2023/01/19 09:28:32;;;;;;;10.20;8.00;;;;;;;;;;5073150;28;20550;-59
2023/01/19 09:30:59;;;;;;;11.35;9.40;;;;;;;;;;5071986;28;20505;-63
2023/01/19 09:33:28;;;;;;;9.57;7.28;;;;;;;;;;5072809;28;20276;-71
2023/01/19 09:35:56;;;;;;;10.20;8.23;;;;;;;;;;5072975;28;20243;-68
2023/01/19 09:38:24;;;;;;;10.50;7.30;;;;;;;;;;5073125;28;20203;-66
2023/01/19 09:40:52;;;;;;;7.47;6.70;;;;;;;;;;5072791;28;20277;-59
2023/01/19 09:43:23;;;;;;;8.98;6.55;;;;;;;;;;5072430;28;20186;-60
2023/01/19 09:45:52;;;;;;;12.27;7.00;;;;;;;;;;5072776;28;20636;-59
2023/01/19 09:48:33;;;;;;;8.65;6.60;;;;;;;;;;5072179;28;20218;-60
2023/01/19 09:51:02;;;;;;;7.78;6.97;;;;;;;;;;5072584;28;20553;-60
2023/01/19 09:53:35;;;;;;;11.02;7.88;;;;;;;;;;5076376;28;20220;-63
2023/01/19 09:56:02;;;;;;;8.52;6.97;;;;;;;;;;5084211;28;20613;-61
2023/01/19 09:58:29;;;;;;;9.80;7.53;;;;;;;;;;5072398;28;20741;-66
2023/01/19 10:01:00;;;;;;;11.20;6.20;;;;;;;;;;5072533;28;20194;-68
2023/01/19 10:03:27;;;;;;;9.98;6.55;;;;;;;;;;5085024;28;20725;-59
2023/01/19 10:05:59;;;;;;;9.63;6.88;;;;;;;;;;5084980;28;20268;-68
2023/01/19 10:08:29;;;;;;;7.72;6.65;;;;;;;;;;5092651;28;20307;-61
2023/01/19 10:10:57;;;;;;;12.50;6.55;;;;;;;;;;5079034;28;20249;-66
2023/01/19 10:13:35;;;;;;;8.00;7.03;;;;;;;;;;5089712;28;20688;-67
2023/01/19 10:16:07;;;;;;;8.75;6.95;;;;;;;;;;5078310;28;20182;-67
2023/01/19 10:18:44;;;;;;;7.15;6.45;;;;;;;;;;5083005;28;20186;-60
2023/01/19 10:21:15;;;;;;;9.07;6.93;;;;;;;;;;5072412;28;20284;-68
2023/01/19 10:23:43;;;;;;;8.57;6.93;;;;;;;;;;5089451;28;20543;-61
2023/01/19 10:26:13;;;;;;;7.57;6.25;;;;;;;;;;5096581;28;20275;-61
2023/01/19 10:28:40;;;;;;;9.77;7.18;;;;;;;;;;5081663;28;20197;-62
2023/01/19 10:31:08;;;;;;;10.00;7.10;;;;;;;;;;5096222;28;20223;-62
2023/01/19 10:33:35;;;;;;;8.60;7.40;;;;;;;;;;5077139;28;20576;-60
2023/01/19 10:36:04;;;;;;;9.15;7.88;;;;;;;;;;5086941;28;20933;-67
2023/01/19 10:38:33;;;;;;;9.60;8.60;;;;;;;;;;5089592;28;20487;-62
2023/01/19 10:41:03;;;;;;;12.48;8.55;;;;;;;;;;5096100;28;20882;-70
2023/01/19 10:43:37;;;;;;;10.13;7.25;;;;;;;;;;5095707;28;20221;-71
2023/01/19 10:46:06;;;;;;;9.80;8.30;;;;;;;;;;5095716;28;20501;-66
2023/01/19 10:48:37;;;;;;;13.57;8.15;;;;;;;;;;5095950;28;20306;-66
2023/01/19 10:51:05;;;;;;;7.05;6.35;;;;;;;;;;5096331;28;20194;-60
2023/01/19 10:53:33;;;;;;;7.40;6.63;;;;;;;;;;5096046;28;20190;-65
2023/01/19 10:56:11;;;;;;;8.80;6.60;;;;;;;;;;5096172;28;20376;-63
2023/01/19 10:58:39;;;;;;;8.60;7.07;;;;;;;;;;5096189;28;20624;-59
2023/01/19 11:01:13;;;;;;;8.05;7.25;;;;;;;;;;5096282;28;20571;-62
2023/01/19 11:03:40;;;;;;;10.20;7.15;;;;;;;;;;5095878;28;20195;-60
2023/01/19 11:06:20;;;;;;;7.65;6.90;;;;;;;;;;5095919;28;20276;-60
2023/01/19 11:08:50;;;;;;;9.60;8.20;;;;;;;;;;5096158;28;20620;-62
2023/01/19 11:11:17;;;;;;;7.70;6.68;;;;;;;;;;5095958;28;20281;-61
2023/01/19 11:13:45;;;;;;;10.23;7.55;;;;;;;;;;5095807;28;20194;-59
2023/01/19 11:16:16;;;;;;;9.45;7.57;;;;;;;;;;5095771;28;20288;-60
2023/01/19 11:18:44;;;;;;;11.00;7.20;;;;;;;;;;5095683;28;20774;-63
2023/01/19 11:21:12;;;;;;;8.27;7.43;;;;;;;;;;5095908;28;20232;-63
2023/01/19 11:23:41;;;;;;;9.40;7.65;;;;;;;;;;5095750;28;20200;-64
2023/01/19 11:26:15;;;;;;;9.15;7.85;;;;;;;;;;5095624;28;20197;-65
2023/01/19 11:28:43;;;;;;;10.13;9.07;;;;;;;;;;5095413;28;20305;-62
2023/01/19 11:31:28;;;;;;;10.02;8.00;;;;;;;;;;5095371;28;20212;-64
2023/01/19 11:33:55;;;;;;;9.25;8.30;;;;;;;;;;5095463;28;20172;-63
2023/01/19 11:36:23;;;;;;;11.82;9.18;;;;;;;;;;5093923;28;20456;-62
2023/01/19 11:38:51;;;;;;;9.63;8.63;;;;;;;;;;5095400;28;20555;-63
2023/01/19 11:41:20;;;;;;;10.00;8.43;;;;;;;;;;5095299;28;20280;-63
2023/01/19 11:43:49;;;;;;;14.65;9.23;;;;;;;;;;5094911;28;20221;-64
2023/01/19 11:46:16;;;;;;;9.98;8.43;;;;;;;;;;5095233;28;20541;-72
2023/01/19 11:48:47;;;;;;;9.20;7.85;;;;;;;;;;5094829;28;20185;-66
2023/01/19 11:51:16;;;;;;;9.80;7.03;;;;;;;;;;5094977;28;20190;-60
2023/01/19 11:53:44;;;;;;;9.77;8.25;;;;;;;;;;5094971;28;20211;-60
2023/01/19 11:56:11;;;;;;;9.30;8.40;;;;;;;;;;5095412;28;20190;-60
2023/01/19 11:58:40;;;;;;;10.15;8.13;;;;;;;;;;5094803;28;20195;-60
2023/01/19 12:01:11;;;;;;;10.70;8.23;;;;;;;;;;5095081;28;20295;-60
2023/01/19 12:03:41;;;;;;;11.00;8.00;;;;;;;;;;5094899;28;20281;-60
2023/01/19 12:06:10;;;;;;;10.15;7.82;;;;;;;;;;5094798;28;20620;-60
2023/01/19 12:08:40;;;;;;;10.65;7.63;;;;;;;;;;5094665;28;20277;-60
2023/01/19 12:11:09;;;;;;;11.60;8.98;;;;;;;;;;5094565;28;20280;-60
2023/01/19 12:13:37;;;;;;;12.45;8.55;;;;;;;;;;5094766;28;20193;-59
2023/01/19 12:16:07;;;;;;;12.52;8.73;;;;;;;;;;5094638;28;20224;-61
2023/01/19 12:18:37;;;;;;;10.13;7.88;;;;;;;;;;5094477;28;20296;-64
2023/01/19 12:21:04;;;;;;;10.38;8.18;;;;;;;;;;5094455;28;20704;-64
2023/01/19 12:24:00;;;;;;;10.60;8.20;;;;;;;;;;5094334;28;20190;-65
2023/01/19 12:26:29;;;;;;;9.48;8.40;;;;;;;;;;5058540;28;20198;-65
2023/01/19 12:28:57;;;;;;;9.45;8.07;;;;;;;;;;5094226;28;22156;-65
2023/01/19 12:31:26;;;;;;;11.32;7.93;;;;;;;;;;5094170;28;20645;-63
2023/01/19 12:33:53;;;;;;;12.60;9.20;;;;;;;;;;5094297;28;20197;-63
2023/01/19 12:36:36;;;;;;;11.65;8.85;;;;;;;;;;5094374;28;20225;-62
2023/01/19 12:39:04;;;;;;;10.73;9.00;;;;;;;;;;5094064;28;20676;-61
2023/01/19 12:41:32;;;;;;;11.57;7.82;;;;;;;;;;5094174;28;20226;-62
2023/01/19 12:44:18;;;;;;;12.70;8.32;;;;;;;;;;5093858;28;20309;-52
2023/01/19 12:46:46;;;;;;;11.27;8.15;;;;;;;;;;5094041;28;20557;-54
2023/01/19 12:49:18;;;;;;;9.88;7.70;;;;;;;;;;5094007;28;20307;-56
2023/01/19 12:51:45;;;;;;;9.43;7.45;;;;;;;;;;5093909;28;20277;-63
2023/01/19 12:54:19;;;;;;;10.32;8.75;;;;;;;;;;5093955;28;20560;-65
2023/01/19 12:56:46;;;;;;;14.43;8.43;;;;;;;;;;5093325;28;20201;-59
2023/01/19 12:59:24;;;;;;;10.32;8.60;;;;;;;;;;5093794;28;20225;-61
2023/01/19 13:02:06;;;;;;;9.18;7.47;;;;;;;;;;5093859;28;20660;-65
2023/01/19 13:04:34;;;;;;;9.15;8.18;;;;;;;;;;5093451;28;20293;-63
2023/01/19 13:07:09;;;;;;;9.88;8.02;;;;;;;;;;5093448;28;20281;-63
2023/01/19 13:09:36;;;;;;;7.53;6.78;;;;;;;;;;5093505;28;20221;-61
2023/01/19 13:12:20;;;;;;;9.05;7.97;;;;;;;;;;5093687;28;20193;-60
2023/01/19 13:14:48;;;;;;;8.82;7.95;;;;;;;;;;5093399;28;20193;-65
2023/01/19 13:17:30;;;;;;;9.48;7.93;;;;;;;;;;5093413;28;20186;-59
2023/01/19 13:20:01;;;;;;;12.57;8.63;;;;;;;;;;5093418;28;20242;-64
2023/01/19 13:22:48;;;;;;;9.45;7.53;;;;;;;;;;5093391;28;20277;-61
2023/01/19 13:25:30;;;;;;;9.95;8.43;;;;;;;;;;5093274;28;20191;-61
2023/01/19 13:27:57;;;;;;;8.45;7.32;;;;;;;;;;5093227;28;20276;-65
2023/01/19 13:30:26;;;;;;;8.80;8.00;;;;;;;;;;5093216;28;20218;-60
2023/01/19 13:32:54;;;;;;;14.65;8.77;;;;;;;;;;5093251;28;20198;-63
2023/01/19 13:35:23;;;;;;;10.38;8.75;;;;;;;;;;5084116;28;20194;-62
2023/01/19 13:37:50;;;;;;;8.63;7.72;;;;;;;;;;5073146;28;20277;-60
2023/01/19 13:40:19;;;;;;;12.07;9.85;;;;;;;;;;5073013;28;20612;-64
2023/01/19 13:42:46;;;;;;;12.75;8.10;;;;;;;;;;5072890;28;20710;-57
2023/01/19 13:45:18;;;;;;;12.38;7.72;;;;;;;;;;5072266;28;20223;-63
2023/01/19 13:47:47;;;;;;;11.23;8.10;;;;;;;;;;5072994;28;20225;-60
2023/01/19 13:50:19;;;;;;;11.38;8.75;;;;;;;;;;5072403;28;20222;-66
2023/01/19 13:52:50;;;;;;;11.98;8.00;;;;;;;;;;5072519;28;20230;-68
2023/01/19 13:55:19;;;;;;;10.45;8.07;;;;;;;;;;5072585;28;20195;-59
2023/01/19 13:57:46;;;;;;;10.90;8.45;;;;;;;;;;5072351;28;20191;-59
2023/01/19 14:00:17;;;;;;;8.30;7.50;;;;;;;;;;5072660;28;20560;-55
2023/01/19 14:02:55;;;;;;;10.35;8.20;;;;;;;;;;5072714;28;20607;-67
2023/01/19 14:05:24;;;;;;;9.65;7.78;;;;;;;;;;5072421;28;20198;-65
2023/01/19 14:08:01;;;;;;;9.13;8.10;;;;;;;;;;5074959;28;20633;-75
2023/01/19 14:10:30;;;;;;;8.55;7.53;;;;;;;;;;5072846;28;20704;-61
2023/01/19 14:13:00;;;;;;;11.82;9.20;;;;;;;;;;5072561;28;20245;-60
2023/01/19 14:15:27;;;;;;;10.60;7.78;;;;;;;;;;5072437;28;20701;-62
2023/01/19 14:18:11;;;;;;;9.95;7.63;;;;;;;;;;5072364;28;20678;-62
2023/01/19 14:20:39;;;;;;;11.45;9.25;;;;;;;;;;5072530;28;20281;-61
2023/01/19 14:23:27;;;;;;;11.43;8.05;;;;;;;;;;5072528;28;20195;-61
2023/01/19 14:25:54;;;;;;;9.18;7.63;;;;;;;;;;5072158;28;20191;-61
2023/01/19 14:28:28;;;;;;;9.73;8.23;;;;;;;;;;5072443;28;20195;-65
2023/01/19 14:30:56;;;;;;;9.70;8.70;;;;;;;;;;5077264;28;20305;-63
2023/01/19 14:33:36;;;;;;;13.40;8.20;;;;;;;;;;5080550;28;20210;-65
2023/01/19 14:36:10;;;;;;;11.52;9.02;;;;;;;;;;5080843;28;20644;-65
2023/01/19 14:38:39;;;;;;;10.07;8.63;;;;;;;;;;5089899;28;20612;-60
2023/01/19 14:41:06;;;;;;;9.38;8.00;;;;;;;;;;5092302;28;20243;-60
2023/01/19 14:43:33;;;;;;;9.43;8.45;;;;;;;;;;5091629;28;20274;-60
2023/01/19 14:46:00;;;;;;;12.20;8.55;;;;;;;;;;5090197;28;20219;-59
2023/01/19 14:48:28;;;;;;;10.10;8.68;;;;;;;;;;5091675;28;20576;-59
2023/01/19 14:51:01;;;;;;;7.97;7.15;;;;;;;;;;5092296;28;20221;-60